Time;durP1;ratioP1;P1;durP2;ratioP2;P2;SDS_P1;SDS_P2;PMS_P1;PMS_P2;Temp;Humidity;BMP_temperature;BMP_pressure;BME280_temperature;BME280_humidity;BME280_pressure;Samples;Min_cycle;Max_cycle;Signal;HPM_P1;HPM_P2
2024/03/02 00:02:25;;;;;;;1.37;1.27;;;;;;;;;;5028717;28;59595;-81
2024/03/02 00:04:50;;;;;;;1.45;1.35;;;;;;;;;;5011752;28;59441;-78
2024/03/02 00:07:15;;;;;;;1.25;1.15;;;;;;;;;;5014660;28;60164;-82
2024/03/02 00:09:40;;;;;;;0.87;0.87;;;;;;;;;;5010605;28;59184;-78
2024/03/02 00:12:06;;;;;;;1.25;1.10;;;;;;;;;;5012074;28;59193;-79
2024/03/02 00:14:31;;;;;;;0.90;0.90;;;;;;;;;;5027053;28;59935;-78
2024/03/02 00:16:56;;;;;;;1.88;1.30;;;;;;;;;;5029134;28;59309;-79
2024/03/02 00:19:21;;;;;;;0.80;0.80;;;;;;;;;;5028074;28;60126;-79
2024/03/02 00:21:47;;;;;;;1.27;0.97;;;;;;;;;;5026439;28;59148;-78
2024/03/02 00:24:18;;;;;;;1.27;1.20;;;;;;;;;;5026236;28;59247;-78
2024/03/02 00:26:44;;;;;;;1.17;1.08;;;;;;;;;;5016182;28;60350;-77
2024/03/02 00:29:13;;;;;;;1.30;1.05;;;;;;;;;;5028342;28;59307;-78
2024/03/02 00:31:39;;;;;;;1.02;1.00;;;;;;;;;;5016332;28;59734;-78
2024/03/02 00:34:05;;;;;;;1.30;1.20;;;;;;;;;;5004511;28;59829;-78
2024/03/02 00:36:30;;;;;;;0.80;0.80;;;;;;;;;;5016973;28;59267;-78
2024/03/02 00:38:56;;;;;;;1.30;1.20;;;;;;;;;;5026897;28;60104;-78
2024/03/02 00:41:24;;;;;;;1.45;0.90;;;;;;;;;;5029910;28;59184;-79
2024/03/02 00:43:49;;;;;;;;;;;;;;;;;;5014987;28;59237;-78
2024/03/02 00:46:19;;;;;;;1.23;1.08;;;;;;;;;;5024076;28;61019;-71
2024/03/02 00:48:48;;;;;;;3.33;1.20;;;;;;;;;;5028896;28;59237;-71
2024/03/02 00:51:13;;;;;;;1.52;1.42;;;;;;;;;;5030521;28;60381;-71
2024/03/02 00:53:38;;;;;;;2.65;1.40;;;;;;;;;;5028267;27;59335;-71
2024/03/02 00:56:04;;;;;;;4.40;1.10;;;;;;;;;;5025181;28;59453;-71
2024/03/02 00:58:29;;;;;;;0.98;0.88;;;;;;;;;;5023312;28;60196;-72
2024/03/02 01:00:54;;;;;;;2.30;1.20;;;;;;;;;;5021780;28;59834;-72
2024/03/02 01:03:19;;;;;;;1.10;1.00;;;;;;;;;;5022445;28;59356;-71
2024/03/02 01:05:44;;;;;;;0.90;0.90;;;;;;;;;;5019453;28;59540;-72
2024/03/02 01:08:10;;;;;;;0.67;0.67;;;;;;;;;;5023120;28;59182;-71
2024/03/02 01:10:35;;;;;;;1.67;1.30;;;;;;;;;;5021447;28;59144;-72
2024/03/02 01:13:00;;;;;;;1.00;0.83;;;;;;;;;;5019966;28;60002;-71
2024/03/02 01:15:25;;;;;;;1.00;0.90;;;;;;;;;;5022914;28;59253;-71
2024/03/02 01:17:51;;;;;;;1.00;1.00;;;;;;;;;;5020825;28;60047;-71
2024/03/02 01:20:16;;;;;;;0.90;0.90;;;;;;;;;;5017971;28;59419;-71
2024/03/02 01:22:41;;;;;;;0.90;0.90;;;;;;;;;;5017427;28;59292;-71
2024/03/02 01:25:08;;;;;;;1.00;1.00;;;;;;;;;;5017840;28;59978;-71
2024/03/02 01:27:33;;;;;;;1.30;1.20;;;;;;;;;;5014354;28;59291;-72
2024/03/02 01:29:59;;;;;;;0.90;0.90;;;;;;;;;;5004742;28;59205;-71
2024/03/02 01:32:24;;;;;;;1.00;1.00;;;;;;;;;;5005603;28;60556;-72
2024/03/02 01:34:50;;;;;;;0.63;0.63;;;;;;;;;;5035984;28;59355;-71
2024/03/02 01:37:15;;;;;;;0.93;0.93;;;;;;;;;;5024141;28;59374;-71
2024/03/02 01:39:40;;;;;;;0.80;0.80;;;;;;;;;;5020426;28;59271;-71
2024/03/02 01:42:05;;;;;;;1.23;1.13;;;;;;;;;;5022399;27;59301;-71
2024/03/02 01:44:31;;;;;;;1.92;1.05;;;;;;;;;;5023273;28;61054;-71
2024/03/02 01:46:56;;;;;;;1.20;1.10;;;;;;;;;;5020426;28;59364;-72
2024/03/02 01:49:22;;;;;;;1.10;1.00;;;;;;;;;;5027766;28;59239;-71
2024/03/02 01:51:47;;;;;;;1.35;1.10;;;;;;;;;;5031200;28;61159;-71
2024/03/02 01:54:12;;;;;;;0.98;0.82;;;;;;;;;;5028664;28;59355;-72
2024/03/02 01:56:37;;;;;;;0.90;0.90;;;;;;;;;;5025670;28;61442;-71
2024/03/02 01:59:03;;;;;;;0.77;0.77;;;;;;;;;;5025726;28;59341;-71
2024/03/02 02:01:28;;;;;;;0.88;0.88;;;;;;;;;;5025459;27;59180;-71
2024/03/02 02:03:53;;;;;;;1.17;1.10;;;;;;;;;;5023065;28;59978;-71
2024/03/02 02:06:18;;;;;;;0.93;0.90;;;;;;;;;;5030994;28;59368;-70
2024/03/02 02:08:44;;;;;;;0.73;0.73;;;;;;;;;;5031650;28;59202;-71
2024/03/02 02:11:09;;;;;;;1.48;1.05;;;;;;;;;;5026438;28;60318;-71
2024/03/02 02:13:34;;;;;;;1.10;1.10;;;;;;;;;;5027888;28;59302;-71
2024/03/02 02:16:06;;;;;;;1.40;1.30;;;;;;;;;;5028246;28;59230;-71
2024/03/02 02:18:31;;;;;;;0.50;0.50;;;;;;;;;;5032794;27;59388;-71
2024/03/02 02:20:56;;;;;;;1.30;1.20;;;;;;;;;;5029941;28;59261;-72
2024/03/02 02:23:21;;;;;;;0.80;0.80;;;;;;;;;;5030979;28;59259;-72
2024/03/02 02:25:47;;;;;;;0.93;0.93;;;;;;;;;;5028577;28;59230;-71
2024/03/02 02:28:12;;;;;;;1.17;1.08;;;;;;;;;;5028855;27;59244;-71
2024/03/02 02:30:38;;;;;;;1.03;0.93;;;;;;;;;;5019210;28;61286;-71
2024/03/02 02:33:03;;;;;;;0.80;0.77;;;;;;;;;;5015025;28;59191;-71
2024/03/02 02:35:29;;;;;;;1.40;1.30;;;;;;;;;;5033788;28;59251;-71
2024/03/02 02:37:55;;;;;;;1.15;1.05;;;;;;;;;;5029417;28;59864;-71
2024/03/02 02:40:20;;;;;;;0.80;0.80;;;;;;;;;;5016832;28;59143;-73
2024/03/02 02:42:45;;;;;;;1.17;1.07;;;;;;;;;;5020529;28;60439;-74
2024/03/02 02:45:13;;;;;;;1.27;1.00;;;;;;;;;;5031022;28;59417;-73
2024/03/02 02:47:38;;;;;;;0.77;0.70;;;;;;;;;;5034428;27;59312;-73
2024/03/02 02:50:04;;;;;;;0.90;0.90;;;;;;;;;;5033321;28;60322;-73
2024/03/02 02:52:36;;;;;;;0.75;0.75;;;;;;;;;;5031974;27;59687;-72
2024/03/02 02:55:03;;;;;;;0.80;0.80;;;;;;;;;;5033026;28;58544;-70
2024/03/02 02:57:30;;;;;;;0.90;0.90;;;;;;;;;;5022182;28;59286;-70
2024/03/02 02:59:55;;;;;;;1.02;0.90;;;;;;;;;;5016302;28;59287;-70
2024/03/02 03:02:20;;;;;;;1.20;1.10;;;;;;;;;;5033715;28;59249;-71
2024/03/02 03:04:45;;;;;;;1.10;0.70;;;;;;;;;;5031679;28;59482;-71
2024/03/02 03:07:10;;;;;;;0.95;0.90;;;;;;;;;;5028930;28;59202;-71
2024/03/02 03:09:37;;;;;;;0.80;0.80;;;;;;;;;;5033998;28;61908;-70
2024/03/02 03:12:02;;;;;;;0.90;0.90;;;;;;;;;;5033451;28;59218;-71
2024/03/02 03:14:27;;;;;;;0.70;0.70;;;;;;;;;;5033447;28;59481;-71
2024/03/02 03:16:52;;;;;;;0.98;0.98;;;;;;;;;;5033804;28;59212;-71
2024/03/02 03:19:17;;;;;;;0.70;0.70;;;;;;;;;;5034171;28;59212;-70
2024/03/02 03:21:43;;;;;;;0.80;0.80;;;;;;;;;;5027806;28;59486;-71
2024/03/02 03:24:08;;;;;;;1.10;1.05;;;;;;;;;;5016081;28;59088;-71
2024/03/02 03:26:36;;;;;;;0.95;0.90;;;;;;;;;;5031766;28;59190;-71
2024/03/02 03:29:02;;;;;;;0.75;0.75;;;;;;;;;;5033701;28;60195;-70
2024/03/02 03:31:27;;;;;;;0.82;0.82;;;;;;;;;;5024832;28;59250;-71
2024/03/02 03:33:52;;;;;;;0.80;0.80;;;;;;;;;;5032424;28;59234;-70
2024/03/02 03:36:17;;;;;;;0.80;0.80;;;;;;;;;;5031358;27;60021;-70
2024/03/02 03:38:42;;;;;;;0.98;0.98;;;;;;;;;;5030535;28;59318;-71
2024/03/02 03:41:08;;;;;;;0.60;0.60;;;;;;;;;;5027510;28;59301;-71
2024/03/02 03:43:33;;;;;;;1.47;0.70;;;;;;;;;;5031497;28;59075;-72
2024/03/02 03:45:58;;;;;;;0.83;0.83;;;;;;;;;;5031833;28;59155;-71
2024/03/02 03:48:23;;;;;;;0.82;0.82;;;;;;;;;;5028661;28;60593;-71
2024/03/02 03:50:48;;;;;;;0.85;0.82;;;;;;;;;;5028934;28;59361;-71
2024/03/02 03:53:14;;;;;;;0.85;0.80;;;;;;;;;;5032864;28;59255;-71
2024/03/02 03:55:39;;;;;;;0.93;0.70;;;;;;;;;;5030868;28;61108;-71
2024/03/02 03:58:05;;;;;;;0.60;0.60;;;;;;;;;;5033114;27;59309;-71
2024/03/02 04:00:30;;;;;;;0.77;0.77;;;;;;;;;;5023184;28;59330;-72
2024/03/02 04:02:55;;;;;;;0.90;0.90;;;;;;;;;;5018044;28;60103;-73
2024/03/02 04:05:21;;;;;;;0.75;0.75;;;;;;;;;;5031621;28;59330;-72
2024/03/02 04:07:46;;;;;;;0.80;0.80;;;;;;;;;;5030056;28;59534;-72
2024/03/02 04:10:12;;;;;;;1.45;1.35;;;;;;;;;;5027086;28;59431;-72
2024/03/02 04:12:37;;;;;;;0.80;0.80;;;;;;;;;;5026829;28;59159;-73
2024/03/02 04:15:06;;;;;;;1.20;1.10;;;;;;;;;;5029230;28;61707;-72
2024/03/02 04:17:32;;;;;;;0.90;0.85;;;;;;;;;;5027861;28;59438;-73
2024/03/02 04:19:57;;;;;;;0.82;0.82;;;;;;;;;;5033540;28;59249;-72
2024/03/02 04:22:22;;;;;;;1.03;0.87;;;;;;;;;;5028719;28;59162;-72
2024/03/02 04:24:47;;;;;;;0.90;0.90;;;;;;;;;;5026046;28;59544;-72
2024/03/02 04:27:12;;;;;;;0.60;0.60;;;;;;;;;;5027339;27;61368;-72
2024/03/02 04:29:38;;;;;;;0.70;0.70;;;;;;;;;;5025292;28;59540;-72
2024/03/02 04:32:03;;;;;;;0.95;0.90;;;;;;;;;;5011554;28;59400;-72
2024/03/02 04:34:28;;;;;;;0.70;0.70;;;;;;;;;;5026906;28;60099;-72
2024/03/02 04:36:53;;;;;;;0.70;0.70;;;;;;;;;;5026938;28;59283;-72
2024/03/02 04:39:18;;;;;;;0.88;0.88;;;;;;;;;;5027245;28;59291;-72
2024/03/02 04:41:43;;;;;;;0.77;0.77;;;;;;;;;;5032474;28;60356;-73
2024/03/02 04:44:08;;;;;;;0.70;0.70;;;;;;;;;;5029386;28;59550;-72
2024/03/02 04:46:34;;;;;;;0.80;0.80;;;;;;;;;;5025450;28;60454;-73
2024/03/02 04:48:59;;;;;;;0.70;0.70;;;;;;;;;;5029682;28;59338;-72
2024/03/02 04:51:24;;;;;;;0.80;0.80;;;;;;;;;;5031615;28;59615;-72
2024/03/02 04:53:49;;;;;;;0.60;0.60;;;;;;;;;;5032474;28;59490;-72
2024/03/02 04:56:39;;;;;;;0.77;0.77;;;;;;;;;;5029355;28;59305;-72
2024/03/02 04:59:05;;;;;;;0.70;0.70;;;;;;;;;;5032216;28;59316;-72
2024/03/02 05:01:30;;;;;;;0.70;0.70;;;;;;;;;;5027819;28;60107;-72
2024/03/02 05:03:56;;;;;;;0.95;0.88;;;;;;;;;;5028121;28;59202;-72
2024/03/02 05:06:21;;;;;;;1.00;0.95;;;;;;;;;;5030658;28;59175;-72
2024/03/02 05:08:47;;;;;;;0.80;0.70;;;;;;;;;;5029199;28;59720;-73
2024/03/02 05:13:56;;;;;;;0.68;0.68;;;;;;;;;;5025526;28;62626;-72
2024/03/02 05:16:22;;;;;;;0.80;0.80;;;;;;;;;;5029979;28;59522;-72
2024/03/02 05:18:47;;;;;;;0.70;0.70;;;;;;;;;;5020829;28;59450;-72
2024/03/02 05:21:12;;;;;;;0.60;0.60;;;;;;;;;;5013775;28;61213;-73
2024/03/02 05:23:38;;;;;;;0.90;0.90;;;;;;;;;;5030710;28;59507;-72
2024/03/02 05:26:03;;;;;;;0.40;0.40;;;;;;;;;;5030104;28;59163;-72
2024/03/02 05:28:28;;;;;;;0.52;0.52;;;;;;;;;;5013397;28;59240;-73
2024/03/02 05:30:54;;;;;;;0.70;0.70;;;;;;;;;;5021239;28;59160;-73
2024/03/02 05:33:22;;;;;;;0.67;0.67;;;;;;;;;;5028901;28;60303;-72
2024/03/02 05:35:47;;;;;;;0.88;0.88;;;;;;;;;;5029674;28;59574;-72
2024/03/02 05:38:13;;;;;;;0.80;0.80;;;;;;;;;;5030557;28;59249;-72
2024/03/02 05:40:38;;;;;;;0.70;0.70;;;;;;;;;;5032240;28;60148;-73
2024/03/02 05:43:03;;;;;;;1.17;1.17;;;;;;;;;;5032550;28;59075;-72
2024/03/02 05:45:28;;;;;;;0.87;0.87;;;;;;;;;;5032492;28;59379;-73
2024/03/02 05:47:53;;;;;;;0.53;0.53;;;;;;;;;;5030535;28;61148;-73
2024/03/02 05:50:19;;;;;;;0.68;0.68;;;;;;;;;;5031187;28;59602;-72
2024/03/02 05:52:45;;;;;;;0.80;0.80;;;;;;;;;;5035512;28;60488;-72
2024/03/02 05:55:10;;;;;;;0.50;0.50;;;;;;;;;;5027698;28;59406;-72
2024/03/02 06:00:09;;;;;;;0.80;0.80;;;;;;;;;;5030124;28;59226;-72
2024/03/02 06:02:37;;;;;;;0.73;0.73;;;;;;;;;;5027043;28;59446;-73
2024/03/02 06:05:02;;;;;;;0.57;0.57;;;;;;;;;;5031701;28;59275;-72
2024/03/02 06:07:27;;;;;;;0.73;0.73;;;;;;;;;;5028670;28;61314;-73
2024/03/02 06:09:52;;;;;;;0.60;0.60;;;;;;;;;;5032900;28;59243;-72
2024/03/02 06:12:18;;;;;;;0.50;0.50;;;;;;;;;;5017031;28;59911;-70
2024/03/02 06:14:44;;;;;;;0.63;0.63;;;;;;;;;;5007368;28;59935;-71
2024/03/02 06:17:09;;;;;;;0.70;0.60;;;;;;;;;;5031294;28;59213;-70
2024/03/02 06:19:34;;;;;;;0.60;0.60;;;;;;;;;;5033363;28;59174;-70
2024/03/02 06:21:59;;;;;;;0.60;0.60;;;;;;;;;;5030346;28;59254;-72
2024/03/02 06:24:26;;;;;;;0.65;0.65;;;;;;;;;;5029920;27;59311;-72
2024/03/02 06:26:51;;;;;;;0.70;0.70;;;;;;;;;;5030926;28;60441;-73
2024/03/02 06:29:16;;;;;;;0.60;0.60;;;;;;;;;;5015641;28;59264;-72
2024/03/02 06:31:41;;;;;;;0.63;0.50;;;;;;;;;;5025976;28;59247;-72
2024/03/02 06:34:06;;;;;;;1.88;0.70;;;;;;;;;;5030465;28;60017;-72
2024/03/02 06:36:31;;;;;;;0.80;0.80;;;;;;;;;;5030803;28;59367;-72
2024/03/02 06:38:57;;;;;;;0.50;0.50;;;;;;;;;;5033683;28;59989;-72
2024/03/02 06:41:22;;;;;;;0.77;0.77;;;;;;;;;;5036164;28;59764;-73
2024/03/02 06:43:47;;;;;;;0.77;0.77;;;;;;;;;;5030708;28;59390;-72
2024/03/02 06:46:14;;;;;;;0.80;0.80;;;;;;;;;;5018711;28;59822;-72
2024/03/02 06:48:40;;;;;;;0.75;0.75;;;;;;;;;;5011577;28;59417;-73
2024/03/02 06:51:05;;;;;;;2.63;0.70;;;;;;;;;;5020438;28;59386;-72
2024/03/02 06:53:31;;;;;;;0.90;0.90;;;;;;;;;;5032700;28;60567;-72
2024/03/02 06:55:56;;;;;;;0.90;0.90;;;;;;;;;;5032231;28;59220;-72
2024/03/02 06:58:21;;;;;;;1.85;0.82;;;;;;;;;;5030651;28;61226;-73
2024/03/02 07:00:48;;;;;;;0.98;0.73;;;;;;;;;;5024647;28;59388;-73
2024/03/02 07:03:13;;;;;;;0.65;0.63;;;;;;;;;;5013371;28;59363;-72
2024/03/02 07:05:38;;;;;;;0.50;0.50;;;;;;;;;;5013747;28;60330;-72
2024/03/02 07:08:05;;;;;;;0.77;0.77;;;;;;;;;;5030392;28;59369;-72
2024/03/02 07:10:30;;;;;;;0.70;0.70;;;;;;;;;;5028964;28;59397;-72
2024/03/02 07:12:55;;;;;;;0.70;0.70;;;;;;;;;;5030481;28;59196;-72
2024/03/02 07:17:51;;;;;;;0.95;0.60;;;;;;;;;;5028034;28;59403;-72
2024/03/02 07:20:17;;;;;;;0.63;0.63;;;;;;;;;;5033249;28;59277;-71
2024/03/02 07:22:43;;;;;;;0.98;0.98;;;;;;;;;;5031971;28;59300;-71
2024/03/02 07:25:08;;;;;;;2.17;0.65;;;;;;;;;;5022799;28;60273;-71
2024/03/02 07:27:35;;;;;;;0.70;0.70;;;;;;;;;;5028718;27;59248;-70
2024/03/02 07:30:00;;;;;;;0.75;0.73;;;;;;;;;;5029315;28;59227;-70
2024/03/02 07:32:25;;;;;;;0.85;0.70;;;;;;;;;;5028893;28;60157;-72
2024/03/02 07:34:50;;;;;;;1.37;0.93;;;;;;;;;;5031139;28;59693;-73
2024/03/02 07:37:16;;;;;;;1.17;1.10;;;;;;;;;;5026856;27;59375;-72
2024/03/02 07:39:41;;;;;;;1.70;0.70;;;;;;;;;;5028084;28;59295;-73
2024/03/02 07:42:06;;;;;;;0.93;0.93;;;;;;;;;;5033267;28;59324;-73
2024/03/02 07:44:31;;;;;;;0.77;0.77;;;;;;;;;;5031830;28;59280;-73
2024/03/02 07:46:56;;;;;;;0.63;0.63;;;;;;;;;;5034492;28;59402;-72
2024/03/02 07:49:22;;;;;;;0.70;0.70;;;;;;;;;;5029151;28;59180;-72
2024/03/02 07:51:47;;;;;;;1.30;1.20;;;;;;;;;;5026424;28;59227;-72
2024/03/02 07:54:12;;;;;;;1.47;0.90;;;;;;;;;;5026758;28;58902;-72
2024/03/02 07:56:37;;;;;;;0.83;0.83;;;;;;;;;;5028747;28;59112;-72
2024/03/02 07:59:03;;;;;;;1.37;0.90;;;;;;;;;;5033621;28;60426;-72
2024/03/02 08:01:31;;;;;;;1.30;0.85;;;;;;;;;;5032229;28;59081;-73
2024/03/02 08:03:58;;;;;;;1.17;0.80;;;;;;;;;;5026960;28;60073;-72
2024/03/02 08:06:23;;;;;;;0.80;0.80;;;;;;;;;;5029571;28;59136;-73
2024/03/02 08:08:48;;;;;;;0.60;0.60;;;;;;;;;;5024515;28;59269;-73
2024/03/02 08:11:13;;;;;;;1.17;0.83;;;;;;;;;;5010205;28;59222;-73
2024/03/02 08:13:38;;;;;;;0.75;0.75;;;;;;;;;;5027080;28;59465;-73
2024/03/02 08:16:06;;;;;;;0.93;0.82;;;;;;;;;;5032365;28;59463;-72
2024/03/02 08:18:32;;;;;;;0.70;0.70;;;;;;;;;;5026855;28;60503;-72
2024/03/02 08:20:57;;;;;;;2.23;0.73;;;;;;;;;;5026858;28;59411;-73
2024/03/02 08:23:22;;;;;;;1.00;0.90;;;;;;;;;;5028400;28;60889;-72
2024/03/02 08:25:47;;;;;;;1.80;1.00;;;;;;;;;;5025890;28;59224;-72
2024/03/02 08:28:12;;;;;;;0.70;0.70;;;;;;;;;;5032337;27;59243;-72
2024/03/02 08:30:37;;;;;;;0.70;0.70;;;;;;;;;;5033827;28;60184;-71
2024/03/02 08:33:03;;;;;;;0.93;0.73;;;;;;;;;;5028776;28;59296;-71
2024/03/02 08:35:28;;;;;;;0.63;0.63;;;;;;;;;;5033239;28;59266;-70
2024/03/02 08:37:53;;;;;;;0.73;0.73;;;;;;;;;;5030320;28;59385;-71
2024/03/02 08:40:18;;;;;;;0.83;0.83;;;;;;;;;;5029906;28;59255;-72
2024/03/02 08:42:43;;;;;;;0.77;0.77;;;;;;;;;;5028102;28;59612;-70
2024/03/02 08:45:09;;;;;;;0.80;0.67;;;;;;;;;;5017811;28;59464;-70
2024/03/02 08:47:34;;;;;;;0.77;0.77;;;;;;;;;;5010054;28;59144;-70
2024/03/02 08:49:59;;;;;;;0.70;0.70;;;;;;;;;;5031668;28;60074;-70
2024/03/02 08:52:25;;;;;;;2.05;0.88;;;;;;;;;;5027905;28;59219;-71
2024/03/02 08:54:50;;;;;;;1.07;1.00;;;;;;;;;;5028308;28;59364;-70
2024/03/02 08:57:15;;;;;;;0.85;0.85;;;;;;;;;;5028021;27;60417;-71
2024/03/02 08:59:40;;;;;;;0.80;0.80;;;;;;;;;;5031774;28;59260;-70
2024/03/02 09:02:05;;;;;;;1.02;1.02;;;;;;;;;;5031046;28;59257;-70
2024/03/02 09:04:30;;;;;;;0.70;0.70;;;;;;;;;;5031019;28;59218;-70
2024/03/02 09:06:55;;;;;;;1.00;0.90;;;;;;;;;;5028822;28;59166;-70
2024/03/02 09:09:21;;;;;;;0.95;0.80;;;;;;;;;;5028705;28;60141;-70
2024/03/02 09:11:46;;;;;;;0.87;0.87;;;;;;;;;;5030998;28;59332;-70
2024/03/02 09:14:11;;;;;;;0.85;0.85;;;;;;;;;;5027720;28;59275;-70
2024/03/02 09:16:36;;;;;;;0.87;0.87;;;;;;;;;;5026908;28;61136;-70
2024/03/02 09:19:02;;;;;;;0.80;0.80;;;;;;;;;;5027821;28;59508;-70
2024/03/02 09:21:28;;;;;;;1.25;0.77;;;;;;;;;;5029361;28;59137;-71
2024/03/02 09:23:53;;;;;;;1.42;1.15;;;;;;;;;;5026114;28;60047;-70
2024/03/02 09:26:20;;;;;;;1.20;0.90;;;;;;;;;;5027891;28;59242;-70
2024/03/02 09:28:45;;;;;;;1.00;0.95;;;;;;;;;;5006623;28;60767;-71
2024/03/02 09:31:11;;;;;;;1.03;0.87;;;;;;;;;;5018013;28;59390;-70
2024/03/02 09:33:37;;;;;;;1.38;1.27;;;;;;;;;;5020572;28;59266;-71
2024/03/02 09:36:02;;;;;;;3.70;1.20;;;;;;;;;;5022226;28;60182;-70
2024/03/02 09:38:27;;;;;;;1.13;1.03;;;;;;;;;;5018876;28;59835;-70
2024/03/02 09:40:52;;;;;;;1.73;1.33;;;;;;;;;;5006282;28;59323;-72
2024/03/02 09:43:17;;;;;;;2.07;0.97;;;;;;;;;;5017550;28;59983;-72
2024/03/02 09:45:44;;;;;;;1.00;0.90;;;;;;;;;;5022566;28;59164;-72
2024/03/02 09:48:09;;;;;;;1.20;0.80;;;;;;;;;;5018186;28;61427;-72
2024/03/02 09:50:34;;;;;;;1.52;0.82;;;;;;;;;;5015016;28;59344;-72
2024/03/02 09:53:00;;;;;;;0.75;0.75;;;;;;;;;;5033480;28;59274;-72
2024/03/02 09:55:25;;;;;;;1.17;0.83;;;;;;;;;;5034744;28;60081;-71
2024/03/02 09:57:50;;;;;;;1.70;0.97;;;;;;;;;;5032358;27;59356;-72
2024/03/02 10:00:16;;;;;;;1.17;0.80;;;;;;;;;;5028387;28;59331;-71
2024/03/02 10:02:41;;;;;;;0.80;0.80;;;;;;;;;;5019419;28;61048;-72
2024/03/02 10:05:07;;;;;;;0.88;0.80;;;;;;;;;;5033256;28;59331;-72
2024/03/02 10:07:32;;;;;;;1.45;1.35;;;;;;;;;;5036472;28;59470;-72
2024/03/02 10:09:59;;;;;;;1.53;1.43;;;;;;;;;;5035222;28;59294;-72
2024/03/02 10:12:24;;;;;;;1.92;0.80;;;;;;;;;;5036239;28;59260;-72
2024/03/02 10:14:51;;;;;;;1.17;1.08;;;;;;;;;;5030344;28;60017;-72
2024/03/02 10:17:17;;;;;;;2.78;1.80;;;;;;;;;;5021038;28;59182;-72
2024/03/02 10:19:42;;;;;;;1.15;0.90;;;;;;;;;;5033175;28;59214;-72
2024/03/02 10:22:08;;;;;;;2.22;0.98;;;;;;;;;;5036439;27;60074;-72
2024/03/02 10:24:46;;;;;;;1.23;1.00;;;;;;;;;;5034574;28;59486;-72
2024/03/02 10:27:22;;;;;;;1.77;1.67;;;;;;;;;;5037985;28;59092;-72
2024/03/02 10:29:47;;;;;;;2.97;0.75;;;;;;;;;;5038437;28;61314;-72
2024/03/02 10:32:14;;;;;;;1.65;1.35;;;;;;;;;;5036308;28;58988;-72
2024/03/02 10:34:40;;;;;;;0.77;0.77;;;;;;;;;;5031360;28;60073;-73
2024/03/02 10:37:07;;;;;;;0.80;0.80;;;;;;;;;;5033561;28;59454;-69
2024/03/02 10:39:32;;;;;;;1.42;0.77;;;;;;;;;;5026697;28;60613;-78
2024/03/02 10:41:58;;;;;;;1.47;0.90;;;;;;;;;;5031565;28;59742;-79
2024/03/02 10:44:23;;;;;;;1.17;1.08;;;;;;;;;;5022185;28;59211;-79
2024/03/02 10:46:49;;;;;;;1.48;0.73;;;;;;;;;;5014580;28;59239;-80
2024/03/02 10:49:14;;;;;;;1.05;1.05;;;;;;;;;;5026761;28;60340;-79
2024/03/02 10:51:39;;;;;;;0.93;0.80;;;;;;;;;;5031306;28;59338;-78
2024/03/02 10:54:06;;;;;;;1.90;0.60;;;;;;;;;;5028781;28;60374;-79
2024/03/02 10:56:32;;;;;;;20.88;1.85;;;;;;;;;;5021429;28;59872;-79
2024/03/02 10:59:02;;;;;;;4.70;1.10;;;;;;;;;;5013363;28;59152;-79
2024/03/02 11:01:29;;;;;;;1.45;1.13;;;;;;;;;;5016613;28;60419;-77
2024/03/02 11:03:54;;;;;;;3.50;0.80;;;;;;;;;;5010533;28;59413;-77
2024/03/02 11:06:20;;;;;;;1.02;0.77;;;;;;;;;;5016356;28;59229;-77
2024/03/02 11:08:47;;;;;;;6.63;1.83;;;;;;;;;;5027019;28;60557;-77
2024/03/02 11:11:18;;;;;;;1.75;1.00;;;;;;;;;;5015234;28;59869;-78
2024/03/02 11:13:49;;;;;;;2.10;1.50;;;;;;;;;;5027364;28;59937;-76
2024/03/02 11:16:37;;;;;;;2.97;0.98;;;;;;;;;;5026512;28;59715;-75
2024/03/02 11:19:02;;;;;;;;;;;;;;;;;;5028703;28;59204;-77
2024/03/02 11:21:27;;;;;;;5.47;1.27;;;;;;;;;;5023997;28;59994;-77
2024/03/02 11:23:52;;;;;;;1.33;0.90;;;;;;;;;;5016197;28;59293;-77
2024/03/02 11:26:18;;;;;;;5.93;1.17;;;;;;;;;;5028147;28;59206;-76
2024/03/02 11:28:43;;;;;;;2.63;1.45;;;;;;;;;;5018434;28;60272;-76
2024/03/02 11:31:09;;;;;;;1.85;0.98;;;;;;;;;;5023394;28;59370;-76
2024/03/02 11:33:34;;;;;;;2.78;0.80;;;;;;;;;;5028184;28;59241;-75
2024/03/02 11:36:00;;;;;;;2.93;1.40;;;;;;;;;;5026402;28;59474;-77
2024/03/02 11:38:27;;;;;;;4.93;1.73;;;;;;;;;;5019412;28;59077;-77
2024/03/02 11:40:53;;;;;;;2.72;1.20;;;;;;;;;;5016907;28;60449;-77
2024/03/02 11:43:19;;;;;;;1.25;0.90;;;;;;;;;;5020057;28;59350;-76
2024/03/02 11:45:44;;;;;;;1.48;0.80;;;;;;;;;;5017978;28;59192;-76
2024/03/02 11:48:12;;;;;;;2.55;0.95;;;;;;;;;;5019541;28;60246;-77
2024/03/02 11:50:47;;;;;;;2.88;1.08;;;;;;;;;;5026411;28;59393;-76
2024/03/02 11:53:13;;;;;;;5.00;1.73;;;;;;;;;;5018403;28;59338;-76
2024/03/02 11:55:46;;;;;;;0.98;0.80;;;;;;;;;;5027261;28;60161;-77
2024/03/02 11:58:12;;;;;;;1.95;1.02;;;;;;;;;;5019972;28;59262;-75
2024/03/02 12:00:37;;;;;;;1.77;0.90;;;;;;;;;;5014607;28;61109;-78
2024/03/02 12:03:05;;;;;;;1.15;0.98;;;;;;;;;;5018199;28;59393;-76
2024/03/02 12:05:30;;;;;;;1.00;0.90;;;;;;;;;;5025885;28;59301;-75
2024/03/02 12:08:06;;;;;;;3.43;0.80;;;;;;;;;;5015563;28;59788;-76
2024/03/02 12:10:32;;;;;;;2.75;0.93;;;;;;;;;;5024449;28;59971;-72
2024/03/02 12:12:57;;;;;;;1.48;1.33;;;;;;;;;;5027197;28;59135;-74
2024/03/02 12:15:23;;;;;;;0.60;0.60;;;;;;;;;;5023446;28;59822;-77
2024/03/02 12:17:48;;;;;;;4.93;1.10;;;;;;;;;;5016944;28;59256;-76
2024/03/02 12:20:13;;;;;;;3.47;1.17;;;;;;;;;;5028452;28;59872;-76
2024/03/02 12:22:38;;;;;;;3.20;0.87;;;;;;;;;;5017990;28;59365;-77
2024/03/02 12:25:03;;;;;;;2.53;0.88;;;;;;;;;;5024386;28;59318;-76
2024/03/02 12:27:29;;;;;;;2.28;0.88;;;;;;;;;;5022961;28;60325;-77
2024/03/02 12:29:54;;;;;;;1.53;0.90;;;;;;;;;;5018530;28;59374;-77
2024/03/02 12:32:19;;;;;;;1.33;0.90;;;;;;;;;;5018421;28;59878;-77
2024/03/02 12:34:46;;;;;;;1.23;1.13;;;;;;;;;;5025944;28;61205;-77
2024/03/02 12:37:12;;;;;;;2.95;1.10;;;;;;;;;;5025748;28;59295;-77
2024/03/02 12:39:37;;;;;;;2.08;0.80;;;;;;;;;;5035076;28;59200;-77
2024/03/02 12:42:02;;;;;;;1.27;1.17;;;;;;;;;;5006440;28;60461;-76
2024/03/02 12:44:28;;;;;;;1.03;0.90;;;;;;;;;;5013760;28;59433;-76
2024/03/02 12:46:53;;;;;;;0.90;0.82;;;;;;;;;;5008308;28;60285;-77
2024/03/02 12:49:22;;;;;;;3.13;1.13;;;;;;;;;;5021873;28;59217;-77
2024/03/02 12:51:51;;;;;;;5.72;1.10;;;;;;;;;;5021045;28;59309;-76
2024/03/02 12:54:17;;;;;;;2.25;0.90;;;;;;;;;;5016340;28;61047;-76
2024/03/02 12:56:46;;;;;;;5.78;0.73;;;;;;;;;;5011622;28;59915;-76
2024/03/02 12:59:17;;;;;;;2.03;1.10;;;;;;;;;;5027576;28;59339;-77
2024/03/02 13:01:57;;;;;;;1.67;1.08;;;;;;;;;;5019118;28;60309;-77
2024/03/02 13:04:24;;;;;;;1.25;0.60;;;;;;;;;;5012938;28;59301;-77
2024/03/02 13:06:49;;;;;;;1.65;0.80;;;;;;;;;;5022264;28;60252;-77
2024/03/02 13:09:15;;;;;;;1.37;0.60;;;;;;;;;;5028284;28;59045;-77
2024/03/02 13:11:41;;;;;;;4.63;1.08;;;;;;;;;;5029210;28;59254;-77
2024/03/02 13:14:06;;;;;;;0.65;0.50;;;;;;;;;;5028053;28;59425;-77
2024/03/02 13:16:31;;;;;;;0.80;0.80;;;;;;;;;;5025735;28;59930;-77
2024/03/02 13:18:57;;;;;;;0.82;0.80;;;;;;;;;;5031598;27;59397;-78
2024/03/02 13:21:22;;;;;;;2.50;0.77;;;;;;;;;;5026043;28;62193;-77
2024/03/02 13:23:47;;;;;;;1.30;0.60;;;;;;;;;;5025968;28;59301;-77
2024/03/02 13:26:13;;;;;;;3.17;1.60;;;;;;;;;;5028446;28;59247;-77
2024/03/02 13:28:38;;;;;;;1.33;0.80;;;;;;;;;;5027500;28;59742;-77
2024/03/02 13:31:04;;;;;;;2.13;0.87;;;;;;;;;;5019665;28;59492;-77
2024/03/02 13:33:30;;;;;;;2.47;0.73;;;;;;;;;;5018336;28;60216;-77
2024/03/02 13:35:56;;;;;;;2.70;0.82;;;;;;;;;;5022583;28;59305;-77
2024/03/02 13:38:21;;;;;;;1.33;0.80;;;;;;;;;;5013947;28;59186;-79
2024/03/02 13:40:47;;;;;;;1.10;0.77;;;;;;;;;;5022786;28;59500;-78
2024/03/02 13:43:12;;;;;;;1.58;0.80;;;;;;;;;;5027054;28;59270;-77
2024/03/02 13:45:38;;;;;;;1.90;0.80;;;;;;;;;;5025835;28;60168;-77
2024/03/02 13:48:03;;;;;;;0.68;0.68;;;;;;;;;;5023274;28;60207;-77
2024/03/02 13:50:30;;;;;;;0.93;0.93;;;;;;;;;;5013059;28;59195;-77
2024/03/02 13:52:55;;;;;;;2.45;1.20;;;;;;;;;;5016491;28;64530;-76
2024/03/02 13:55:20;;;;;;;1.87;0.80;;;;;;;;;;5015536;28;59528;-77
2024/03/02 13:57:46;;;;;;;1.98;1.15;;;;;;;;;;5017951;28;59160;-76
2024/03/02 14:00:12;;;;;;;2.17;0.60;;;;;;;;;;5019338;28;59678;-76
2024/03/02 14:02:37;;;;;;;1.15;0.68;;;;;;;;;;5025921;28;59339;-76
2024/03/02 14:05:02;;;;;;;1.83;0.57;;;;;;;;;;5029678;28;59241;-76
2024/03/02 14:07:27;;;;;;;4.93;1.53;;;;;;;;;;5028998;28;59206;-77
2024/03/02 14:09:53;;;;;;;1.00;0.87;;;;;;;;;;5021747;28;59275;-76
2024/03/02 14:12:18;;;;;;;1.20;0.63;;;;;;;;;;5015058;28;60001;-75
2024/03/02 14:14:43;;;;;;;0.50;0.47;;;;;;;;;;5019678;28;59675;-77
2024/03/02 14:17:14;;;;;;;1.03;0.67;;;;;;;;;;5043294;28;59243;-75
2024/03/02 14:19:39;;;;;;;1.90;0.77;;;;;;;;;;5018616;28;59326;-76
2024/03/02 14:22:05;;;;;;;3.53;0.70;;;;;;;;;;5015919;28;59250;-75
2024/03/02 14:24:30;;;;;;;1.10;0.75;;;;;;;;;;5013113;28;59259;-76
2024/03/02 14:26:57;;;;;;;0.57;0.57;;;;;;;;;;5015771;28;60035;-75
2024/03/02 14:29:22;;;;;;;0.77;0.75;;;;;;;;;;5025373;28;59173;-75
2024/03/02 14:31:48;;;;;;;1.07;0.60;;;;;;;;;;5023755;28;60877;-79
2024/03/02 14:34:13;;;;;;;1.10;1.00;;;;;;;;;;5020224;28;59434;-79
2024/03/02 14:36:39;;;;;;;1.30;0.70;;;;;;;;;;5016744;28;59289;-80
2024/03/02 14:39:06;;;;;;;1.55;0.65;;;;;;;;;;5016755;28;60184;-80
2024/03/02 14:41:33;;;;;;;1.30;0.60;;;;;;;;;;5027635;28;59433;-78
2024/03/02 14:43:58;;;;;;;1.13;0.80;;;;;;;;;;5020972;28;59439;-79